sensor_id;sensor_type;location;lat;lon;timestamp;temperature;humidity
780;DHT22;373;49.342;8.146;2022-11-25T00:01:37;6.00;99.90
780;DHT22;373;49.342;8.146;2022-11-25T00:04:05;6.20;99.90
780;DHT22;373;49.342;8.146;2022-11-25T00:06:33;6.40;99.90
780;DHT22;373;49.342;8.146;2022-11-25T00:09:03;6.40;99.90
780;DHT22;373;49.342;8.146;2022-11-25T00:11:33;6.70;99.90
780;DHT22;373;49.342;8.146;2022-11-25T00:14:01;6.50;99.90
780;DHT22;373;49.342;8.146;2022-11-25T00:16:28;5.90;99.90
780;DHT22;373;49.342;8.146;2022-11-25T00:18:56;5.80;99.90
780;DHT22;373;49.342;8.146;2022-11-25T00:21:26;5.60;99.90
780;DHT22;373;49.342;8.146;2022-11-25T00:23:54;5.50;99.90
780;DHT22;373;49.342;8.146;2022-11-25T00:26:23;5.70;99.90
780;DHT22;373;49.342;8.146;2022-11-25T00:28:52;5.80;99.90
780;DHT22;373;49.342;8.146;2022-11-25T00:31:21;6.20;99.90
780;DHT22;373;49.342;8.146;2022-11-25T00:33:49;6.20;99.90
780;DHT22;373;49.342;8.146;2022-11-25T00:36:18;6.10;99.90
780;DHT22;373;49.342;8.146;2022-11-25T00:38:46;6.30;99.90
780;DHT22;373;49.342;8.146;2022-11-25T00:41:14;6.30;99.90
780;DHT22;373;49.342;8.146;2022-11-25T00:44:00;6.40;99.90
780;DHT22;373;49.342;8.146;2022-11-25T00:46:44;6.70;99.90
780;DHT22;373;49.342;8.146;2022-11-25T00:49:11;6.70;99.90
780;DHT22;373;49.342;8.146;2022-11-25T00:51:38;6.60;99.90
780;DHT22;373;49.342;8.146;2022-11-25T00:54:06;6.40;99.90
780;DHT22;373;49.342;8.146;2022-11-25T00:56:33;6.20;99.90
780;DHT22;373;49.342;8.146;2022-11-25T00:59:01;6.30;99.90
780;DHT22;373;49.342;8.146;2022-11-25T01:01:28;6.10;99.90
780;DHT22;373;49.342;8.146;2022-11-25T01:03:55;6.40;99.90
780;DHT22;373;49.342;8.146;2022-11-25T01:06:22;6.60;99.90
780;DHT22;373;49.342;8.146;2022-11-25T01:08:50;6.60;99.90
780;DHT22;373;49.342;8.146;2022-11-25T01:11:19;6.70;99.90
780;DHT22;373;49.342;8.146;2022-11-25T01:13:46;6.60;99.90
780;DHT22;373;49.342;8.146;2022-11-25T01:16:17;6.60;99.90
780;DHT22;373;49.342;8.146;2022-11-25T01:18:46;6.70;99.90
780;DHT22;373;49.342;8.146;2022-11-25T01:21:15;7.00;99.90
780;DHT22;373;49.342;8.146;2022-11-25T01:23:45;7.00;99.90
780;DHT22;373;49.342;8.146;2022-11-25T01:26:14;6.80;99.90
780;DHT22;373;49.342;8.146;2022-11-25T01:28:43;6.60;99.90
780;DHT22;373;49.342;8.146;2022-11-25T01:31:14;6.60;99.90
780;DHT22;373;49.342;8.146;2022-11-25T01:33:41;6.30;99.90
780;DHT22;373;49.342;8.146;2022-11-25T01:36:10;6.20;99.90
780;DHT22;373;49.342;8.146;2022-11-25T01:38:38;6.50;99.90
780;DHT22;373;49.342;8.146;2022-11-25T01:41:10;6.60;99.90
780;DHT22;373;49.342;8.146;2022-11-25T01:43:37;6.70;99.90
780;DHT22;373;49.342;8.146;2022-11-25T01:46:18;6.50;99.90
780;DHT22;373;49.342;8.146;2022-11-25T01:48:50;6.20;99.90
780;DHT22;373;49.342;8.146;2022-11-25T01:51:23;6.20;99.90
780;DHT22;373;49.342;8.146;2022-11-25T01:53:52;6.20;99.90
780;DHT22;373;49.342;8.146;2022-11-25T01:56:21;6.30;99.90
780;DHT22;373;49.342;8.146;2022-11-25T01:58:48;6.30;99.90
780;DHT22;373;49.342;8.146;2022-11-25T02:01:16;6.50;99.90
780;DHT22;373;49.342;8.146;2022-11-25T02:03:46;6.50;99.90
780;DHT22;373;49.342;8.146;2022-11-25T02:06:20;6.40;99.90
780;DHT22;373;49.342;8.146;2022-11-25T02:08:50;6.50;99.90
780;DHT22;373;49.342;8.146;2022-11-25T02:11:20;6.70;99.90
780;DHT22;373;49.342;8.146;2022-11-25T02:13:49;7.00;99.90
780;DHT22;373;49.342;8.146;2022-11-25T02:16:17;6.70;99.90
780;DHT22;373;49.342;8.146;2022-11-25T02:18:44;6.20;99.90
780;DHT22;373;49.342;8.146;2022-11-25T02:21:13;6.00;99.90
780;DHT22;373;49.342;8.146;2022-11-25T02:23:46;5.80;99.90
780;DHT22;373;49.342;8.146;2022-11-25T02:26:20;6.30;99.90
780;DHT22;373;49.342;8.146;2022-11-25T02:28:49;6.40;99.90
780;DHT22;373;49.342;8.146;2022-11-25T02:31:18;6.60;99.90
780;DHT22;373;49.342;8.146;2022-11-25T02:33:46;7.00;99.90
780;DHT22;373;49.342;8.146;2022-11-25T02:36:17;7.20;99.90
780;DHT22;373;49.342;8.146;2022-11-25T02:38:48;7.20;99.90
780;DHT22;373;49.342;8.146;2022-11-25T02:41:17;7.10;99.90
780;DHT22;373;49.342;8.146;2022-11-25T02:43:51;7.10;99.90
780;DHT22;373;49.342;8.146;2022-11-25T02:46:21;6.90;99.90
780;DHT22;373;49.342;8.146;2022-11-25T02:48:49;7.00;99.90
780;DHT22;373;49.342;8.146;2022-11-25T02:51:18;7.10;99.90
780;DHT22;373;49.342;8.146;2022-11-25T02:53:46;7.00;99.90
780;DHT22;373;49.342;8.146;2022-11-25T02:56:15;7.20;99.90
780;DHT22;373;49.342;8.146;2022-11-25T02:58:42;6.70;99.90
780;DHT22;373;49.342;8.146;2022-11-25T03:01:11;6.60;99.90
780;DHT22;373;49.342;8.146;2022-11-25T03:03:38;6.50;99.90
780;DHT22;373;49.342;8.146;2022-11-25T03:06:06;6.60;99.90
780;DHT22;373;49.342;8.146;2022-11-25T03:08:34;6.70;99.90
780;DHT22;373;49.342;8.146;2022-11-25T03:11:05;6.30;99.90
780;DHT22;373;49.342;8.146;2022-11-25T03:13:33;6.20;99.90
780;DHT22;373;49.342;8.146;2022-11-25T03:16:01;6.20;99.90
780;DHT22;373;49.342;8.146;2022-11-25T03:18:29;6.30;99.90
780;DHT22;373;49.342;8.146;2022-11-25T03:20:58;6.40;99.90
780;DHT22;373;49.342;8.146;2022-11-25T03:23:25;6.40;99.90
780;DHT22;373;49.342;8.146;2022-11-25T03:25:53;6.20;99.90
780;DHT22;373;49.342;8.146;2022-11-25T03:28:20;6.40;99.90
780;DHT22;373;49.342;8.146;2022-11-25T03:30:48;6.30;99.90
780;DHT22;373;49.342;8.146;2022-11-25T03:33:15;6.40;99.90
780;DHT22;373;49.342;8.146;2022-11-25T03:35:47;6.40;99.90
780;DHT22;373;49.342;8.146;2022-11-25T03:38:14;6.60;99.90
780;DHT22;373;49.342;8.146;2022-11-25T03:40:41;6.80;99.90
780;DHT22;373;49.342;8.146;2022-11-25T03:43:08;6.90;99.90
780;DHT22;373;49.342;8.146;2022-11-25T03:45:36;6.80;99.90
780;DHT22;373;49.342;8.146;2022-11-25T03:48:06;6.80;99.90
780;DHT22;373;49.342;8.146;2022-11-25T03:50:36;7.10;99.90
780;DHT22;373;49.342;8.146;2022-11-25T03:53:04;7.20;99.90
780;DHT22;373;49.342;8.146;2022-11-25T03:55:31;6.80;99.90
780;DHT22;373;49.342;8.146;2022-11-25T03:57:59;6.90;99.90
780;DHT22;373;49.342;8.146;2022-11-25T04:00:26;7.00;99.90
780;DHT22;373;49.342;8.146;2022-11-25T04:03:01;7.20;99.90
780;DHT22;373;49.342;8.146;2022-11-25T04:05:31;6.80;99.90
780;DHT22;373;49.342;8.146;2022-11-25T04:08:04;6.70;99.90
780;DHT22;373;49.342;8.146;2022-11-25T04:10:32;6.80;99.90
780;DHT22;373;49.342;8.146;2022-11-25T04:12:59;6.70;99.90
780;DHT22;373;49.342;8.146;2022-11-25T04:15:32;6.70;99.90
780;DHT22;373;49.342;8.146;2022-11-25T04:18:00;6.60;99.90
780;DHT22;373;49.342;8.146;2022-11-25T04:20:30;6.60;99.90
780;DHT22;373;49.342;8.146;2022-11-25T04:23:03;6.70;99.90
780;DHT22;373;49.342;8.146;2022-11-25T04:25:34;6.50;99.90
780;DHT22;373;49.342;8.146;2022-11-25T04:28:05;6.60;99.90
780;DHT22;373;49.342;8.146;2022-11-25T04:30:33;6.40;99.90
780;DHT22;373;49.342;8.146;2022-11-25T04:33:01;6.70;99.90
780;DHT22;373;49.342;8.146;2022-11-25T04:35:29;7.00;99.90
780;DHT22;373;49.342;8.146;2022-11-25T04:37:56;7.10;99.90
780;DHT22;373;49.342;8.146;2022-11-25T04:40:25;6.60;99.90
780;DHT22;373;49.342;8.146;2022-11-25T04:43:13;6.60;99.90
780;DHT22;373;49.342;8.146;2022-11-25T04:45:47;6.70;99.90
780;DHT22;373;49.342;8.146;2022-11-25T04:48:15;6.40;99.90
780;DHT22;373;49.342;8.146;2022-11-25T04:50:42;6.40;99.90
780;DHT22;373;49.342;8.146;2022-11-25T04:53:12;6.20;99.90
780;DHT22;373;49.342;8.146;2022-11-25T04:55:41;6.10;99.90
780;DHT22;373;49.342;8.146;2022-11-25T04:58:14;6.50;99.90
780;DHT22;373;49.342;8.146;2022-11-25T05:01:03;6.50;99.90
780;DHT22;373;49.342;8.146;2022-11-25T05:03:30;6.50;99.90
780;DHT22;373;49.342;8.146;2022-11-25T05:05:57;6.60;99.90
780;DHT22;373;49.342;8.146;2022-11-25T05:08:25;6.60;99.90
780;DHT22;373;49.342;8.146;2022-11-25T05:10:53;6.60;99.90
780;DHT22;373;49.342;8.146;2022-11-25T05:13:20;6.50;99.90
780;DHT22;373;49.342;8.146;2022-11-25T05:15:47;7.00;99.90
780;DHT22;373;49.342;8.146;2022-11-25T05:18:22;7.10;99.90
780;DHT22;373;49.342;8.146;2022-11-25T05:20:49;7.40;99.90
780;DHT22;373;49.342;8.146;2022-11-25T05:23:19;7.30;99.90
780;DHT22;373;49.342;8.146;2022-11-25T05:25:47;7.20;99.90
780;DHT22;373;49.342;8.146;2022-11-25T05:28:42;7.30;99.90
780;DHT22;373;49.342;8.146;2022-11-25T05:31:10;7.30;99.90
780;DHT22;373;49.342;8.146;2022-11-25T05:33:37;7.30;99.90
780;DHT22;373;49.342;8.146;2022-11-25T05:36:07;6.70;99.90
780;DHT22;373;49.342;8.146;2022-11-25T05:38:45;6.40;99.90
780;DHT22;373;49.342;8.146;2022-11-25T05:41:18;6.20;99.90
780;DHT22;373;49.342;8.146;2022-11-25T05:43:47;6.60;99.90
780;DHT22;373;49.342;8.146;2022-11-25T05:46:15;6.70;99.90
780;DHT22;373;49.342;8.146;2022-11-25T05:48:47;6.70;99.90
780;DHT22;373;49.342;8.146;2022-11-25T05:51:14;6.50;99.90
780;DHT22;373;49.342;8.146;2022-11-25T05:53:41;6.60;99.90
780;DHT22;373;49.342;8.146;2022-11-25T05:56:09;6.90;99.90
780;DHT22;373;49.342;8.146;2022-11-25T05:59:10;6.80;99.90
780;DHT22;373;49.342;8.146;2022-11-25T06:01:52;6.70;99.90
780;DHT22;373;49.342;8.146;2022-11-25T06:04:19;7.00;99.90
780;DHT22;373;49.342;8.146;2022-11-25T06:06:46;7.00;99.90
780;DHT22;373;49.342;8.146;2022-11-25T06:09:14;7.10;99.90
780;DHT22;373;49.342;8.146;2022-11-25T06:11:41;7.30;99.90
780;DHT22;373;49.342;8.146;2022-11-25T06:14:09;7.20;99.90
780;DHT22;373;49.342;8.146;2022-11-25T06:16:37;7.30;99.90
780;DHT22;373;49.342;8.146;2022-11-25T06:19:27;7.30;99.90
780;DHT22;373;49.342;8.146;2022-11-25T06:21:54;7.40;99.90
780;DHT22;373;49.342;8.146;2022-11-25T06:24:21;7.20;99.90
780;DHT22;373;49.342;8.146;2022-11-25T06:26:56;6.90;99.90
780;DHT22;373;49.342;8.146;2022-11-25T06:29:25;7.10;99.90
780;DHT22;373;49.342;8.146;2022-11-25T06:31:52;7.40;99.90
780;DHT22;373;49.342;8.146;2022-11-25T06:34:33;7.40;99.90
780;DHT22;373;49.342;8.146;2022-11-25T06:37:03;7.20;99.90
780;DHT22;373;49.342;8.146;2022-11-25T06:39:30;7.20;99.90
780;DHT22;373;49.342;8.146;2022-11-25T06:41:57;7.20;99.90
780;DHT22;373;49.342;8.146;2022-11-25T06:44:25;7.10;99.90
780;DHT22;373;49.342;8.146;2022-11-25T06:46:52;7.20;99.90
780;DHT22;373;49.342;8.146;2022-11-25T06:49:19;7.20;99.90
780;DHT22;373;49.342;8.146;2022-11-25T06:51:48;7.40;99.90
780;DHT22;373;49.342;8.146;2022-11-25T06:54:15;7.40;99.90
780;DHT22;373;49.342;8.146;2022-11-25T06:56:42;7.30;99.90
780;DHT22;373;49.342;8.146;2022-11-25T06:59:09;7.60;99.90
780;DHT22;373;49.342;8.146;2022-11-25T07:01:37;7.80;99.90
780;DHT22;373;49.342;8.146;2022-11-25T07:04:04;7.70;99.90
780;DHT22;373;49.342;8.146;2022-11-25T07:06:32;7.80;99.90
780;DHT22;373;49.342;8.146;2022-11-25T07:08:59;7.90;99.90
780;DHT22;373;49.342;8.146;2022-11-25T07:11:29;7.90;99.90
780;DHT22;373;49.342;8.146;2022-11-25T07:13:58;7.80;99.90
780;DHT22;373;49.342;8.146;2022-11-25T07:16:25;7.80;99.90
780;DHT22;373;49.342;8.146;2022-11-25T07:18:54;7.70;99.90
780;DHT22;373;49.342;8.146;2022-11-25T07:21:23;7.80;99.90
780;DHT22;373;49.342;8.146;2022-11-25T07:23:51;7.80;99.90
780;DHT22;373;49.342;8.146;2022-11-25T07:26:21;7.90;99.90
780;DHT22;373;49.342;8.146;2022-11-25T07:28:48;8.10;99.90
780;DHT22;373;49.342;8.146;2022-11-25T07:31:18;7.90;99.90
780;DHT22;373;49.342;8.146;2022-11-25T07:33:46;8.10;99.90
780;DHT22;373;49.342;8.146;2022-11-25T07:36:15;8.00;99.90
780;DHT22;373;49.342;8.146;2022-11-25T07:38:42;7.90;99.90
780;DHT22;373;49.342;8.146;2022-11-25T07:41:11;7.50;99.90
780;DHT22;373;49.342;8.146;2022-11-25T07:43:39;7.30;99.90
780;DHT22;373;49.342;8.146;2022-11-25T07:46:09;7.20;99.90
780;DHT22;373;49.342;8.146;2022-11-25T07:48:36;7.50;99.90
780;DHT22;373;49.342;8.146;2022-11-25T07:51:03;7.80;99.90
780;DHT22;373;49.342;8.146;2022-11-25T07:53:32;7.80;99.90
780;DHT22;373;49.342;8.146;2022-11-25T07:56:00;8.00;99.90
780;DHT22;373;49.342;8.146;2022-11-25T07:58:27;8.00;99.90
780;DHT22;373;49.342;8.146;2022-11-25T08:00:54;7.80;99.90
780;DHT22;373;49.342;8.146;2022-11-25T08:03:21;7.70;99.90
780;DHT22;373;49.342;8.146;2022-11-25T08:05:49;7.60;99.90
780;DHT22;373;49.342;8.146;2022-11-25T08:08:16;7.50;99.90
780;DHT22;373;49.342;8.146;2022-11-25T08:10:44;7.60;99.90
780;DHT22;373;49.342;8.146;2022-11-25T08:13:11;7.70;99.90
780;DHT22;373;49.342;8.146;2022-11-25T08:15:38;7.70;99.90
780;DHT22;373;49.342;8.146;2022-11-25T08:18:06;7.80;99.90
780;DHT22;373;49.342;8.146;2022-11-25T08:20:33;7.60;99.90
780;DHT22;373;49.342;8.146;2022-11-25T08:23:00;7.50;99.90
780;DHT22;373;49.342;8.146;2022-11-25T08:25:38;7.10;99.90
780;DHT22;373;49.342;8.146;2022-11-25T08:28:07;7.10;99.90
780;DHT22;373;49.342;8.146;2022-11-25T08:30:34;7.10;99.90
780;DHT22;373;49.342;8.146;2022-11-25T08:33:01;7.10;99.90
780;DHT22;373;49.342;8.146;2022-11-25T08:35:30;7.10;99.90
780;DHT22;373;49.342;8.146;2022-11-25T08:38:03;7.10;99.90
780;DHT22;373;49.342;8.146;2022-11-25T08:40:30;7.00;99.90
780;DHT22;373;49.342;8.146;2022-11-25T08:42:57;7.00;99.90
780;DHT22;373;49.342;8.146;2022-11-25T08:45:26;6.80;99.90
780;DHT22;373;49.342;8.146;2022-11-25T08:47:53;6.80;99.90
780;DHT22;373;49.342;8.146;2022-11-25T08:50:20;6.80;99.90
780;DHT22;373;49.342;8.146;2022-11-25T08:52:49;6.90;99.90
780;DHT22;373;49.342;8.146;2022-11-25T08:55:16;6.90;99.90
780;DHT22;373;49.342;8.146;2022-11-25T08:57:43;7.10;99.90
780;DHT22;373;49.342;8.146;2022-11-25T09:00:11;6.90;99.90
780;DHT22;373;49.342;8.146;2022-11-25T09:02:40;7.00;99.90
780;DHT22;373;49.342;8.146;2022-11-25T09:05:09;7.00;99.90
780;DHT22;373;49.342;8.146;2022-11-25T09:07:36;6.90;99.90
780;DHT22;373;49.342;8.146;2022-11-25T09:10:04;6.90;99.90
780;DHT22;373;49.342;8.146;2022-11-25T09:12:33;6.90;99.90
780;DHT22;373;49.342;8.146;2022-11-25T09:15:00;7.00;99.90
780;DHT22;373;49.342;8.146;2022-11-25T09:17:27;7.20;99.90
780;DHT22;373;49.342;8.146;2022-11-25T09:19:55;7.30;99.90
780;DHT22;373;49.342;8.146;2022-11-25T09:22:23;7.50;99.90
780;DHT22;373;49.342;8.146;2022-11-25T09:24:50;7.30;99.90
780;DHT22;373;49.342;8.146;2022-11-25T09:27:17;7.30;99.90
780;DHT22;373;49.342;8.146;2022-11-25T09:29:44;7.20;99.90
780;DHT22;373;49.342;8.146;2022-11-25T09:32:11;7.30;99.90
780;DHT22;373;49.342;8.146;2022-11-25T09:34:38;7.50;99.90
780;DHT22;373;49.342;8.146;2022-11-25T09:37:07;7.90;99.90
780;DHT22;373;49.342;8.146;2022-11-25T09:39:34;8.00;99.90
780;DHT22;373;49.342;8.146;2022-11-25T09:42:21;7.90;99.90
780;DHT22;373;49.342;8.146;2022-11-25T09:45:16;8.10;99.90
780;DHT22;373;49.342;8.146;2022-11-25T09:48:29;8.30;99.90
780;DHT22;373;49.342;8.146;2022-11-25T09:51:06;8.30;99.90
780;DHT22;373;49.342;8.146;2022-11-25T09:53:42;8.70;99.90
780;DHT22;373;49.342;8.146;2022-11-25T09:56:13;8.70;99.90
780;DHT22;373;49.342;8.146;2022-11-25T09:58:47;8.90;99.90
780;DHT22;373;49.342;8.146;2022-11-25T10:01:20;9.10;99.90
780;DHT22;373;49.342;8.146;2022-11-25T10:03:52;9.00;99.90
780;DHT22;373;49.342;8.146;2022-11-25T10:06:22;8.80;99.90
780;DHT22;373;49.342;8.146;2022-11-25T10:08:54;8.60;99.90
780;DHT22;373;49.342;8.146;2022-11-25T10:11:30;8.40;99.90
780;DHT22;373;49.342;8.146;2022-11-25T10:14:04;8.60;99.90
780;DHT22;373;49.342;8.146;2022-11-25T10:16:40;8.80;99.90
780;DHT22;373;49.342;8.146;2022-11-25T10:19:15;8.90;99.90
780;DHT22;373;49.342;8.146;2022-11-25T10:21:47;9.00;99.90
780;DHT22;373;49.342;8.146;2022-11-25T10:24:17;9.10;99.90
780;DHT22;373;49.342;8.146;2022-11-25T10:26:50;9.50;99.90
780;DHT22;373;49.342;8.146;2022-11-25T10:29:23;9.80;99.90
780;DHT22;373;49.342;8.146;2022-11-25T10:31:55;9.80;99.90
780;DHT22;373;49.342;8.146;2022-11-25T10:34:28;9.80;99.90
780;DHT22;373;49.342;8.146;2022-11-25T10:36:57;9.60;99.90
780;DHT22;373;49.342;8.146;2022-11-25T10:39:31;9.60;99.90
780;DHT22;373;49.342;8.146;2022-11-25T10:42:00;9.60;99.90
780;DHT22;373;49.342;8.146;2022-11-25T10:44:32;9.50;99.90
780;DHT22;373;49.342;8.146;2022-11-25T10:47:16;9.30;99.90
780;DHT22;373;49.342;8.146;2022-11-25T10:49:58;9.40;99.90
780;DHT22;373;49.342;8.146;2022-11-25T10:52:27;9.70;99.90
780;DHT22;373;49.342;8.146;2022-11-25T10:55:09;9.80;99.90
780;DHT22;373;49.342;8.146;2022-11-25T10:57:36;9.60;99.90
780;DHT22;373;49.342;8.146;2022-11-25T11:00:07;9.70;99.90
780;DHT22;373;49.342;8.146;2022-11-25T11:02:49;9.90;99.90
780;DHT22;373;49.342;8.146;2022-11-25T11:05:21;10.00;99.90
780;DHT22;373;49.342;8.146;2022-11-25T11:08:07;10.00;99.90
780;DHT22;373;49.342;8.146;2022-11-25T11:10:36;10.10;99.90
780;DHT22;373;49.342;8.146;2022-11-25T11:13:04;10.10;99.90
780;DHT22;373;49.342;8.146;2022-11-25T11:15:44;10.30;99.90
780;DHT22;373;49.342;8.146;2022-11-25T11:18:22;10.30;99.90
780;DHT22;373;49.342;8.146;2022-11-25T11:20:51;10.40;99.90
780;DHT22;373;49.342;8.146;2022-11-25T11:23:19;10.60;99.90
780;DHT22;373;49.342;8.146;2022-11-25T11:25:57;10.60;99.90
780;DHT22;373;49.342;8.146;2022-11-25T11:28:27;10.60;99.90
780;DHT22;373;49.342;8.146;2022-11-25T11:30:58;11.00;99.90
780;DHT22;373;49.342;8.146;2022-11-25T11:33:33;11.70;99.90
780;DHT22;373;49.342;8.146;2022-11-25T11:36:14;11.70;99.90
780;DHT22;373;49.342;8.146;2022-11-25T11:38:52;11.50;99.90
780;DHT22;373;49.342;8.146;2022-11-25T11:41:29;11.80;99.90
780;DHT22;373;49.342;8.146;2022-11-25T11:44:08;12.20;99.90
780;DHT22;373;49.342;8.146;2022-11-25T11:46:52;11.90;99.90
780;DHT22;373;49.342;8.146;2022-11-25T11:49:40;11.60;99.90
780;DHT22;373;49.342;8.146;2022-11-25T11:52:20;11.20;99.90
780;DHT22;373;49.342;8.146;2022-11-25T11:54:52;11.20;99.90
780;DHT22;373;49.342;8.146;2022-11-25T11:57:27;10.90;99.90
780;DHT22;373;49.342;8.146;2022-11-25T12:00:02;10.90;99.90
780;DHT22;373;49.342;8.146;2022-11-25T12:02:52;11.00;99.90
780;DHT22;373;49.342;8.146;2022-11-25T12:05:25;11.20;99.90
780;DHT22;373;49.342;8.146;2022-11-25T12:08:00;11.60;99.90
780;DHT22;373;49.342;8.146;2022-11-25T12:10:31;11.80;99.90
780;DHT22;373;49.342;8.146;2022-11-25T12:13:07;11.60;99.90
780;DHT22;373;49.342;8.146;2022-11-25T12:15:43;11.70;99.90
780;DHT22;373;49.342;8.146;2022-11-25T12:18:27;11.50;99.90
780;DHT22;373;49.342;8.146;2022-11-25T12:21:00;11.50;99.90
780;DHT22;373;49.342;8.146;2022-11-25T12:23:36;11.50;99.90
780;DHT22;373;49.342;8.146;2022-11-25T12:26:10;11.60;99.90
780;DHT22;373;49.342;8.146;2022-11-25T12:28:44;12.00;99.90
780;DHT22;373;49.342;8.146;2022-11-25T12:31:16;12.10;99.90
780;DHT22;373;49.342;8.146;2022-11-25T12:33:53;11.90;99.90
780;DHT22;373;49.342;8.146;2022-11-25T12:36:27;11.60;99.90
780;DHT22;373;49.342;8.146;2022-11-25T12:39:01;11.80;99.90
780;DHT22;373;49.342;8.146;2022-11-25T12:41:36;12.00;99.90
780;DHT22;373;49.342;8.146;2022-11-25T12:44:12;11.70;99.90
780;DHT22;373;49.342;8.146;2022-11-25T12:46:44;11.40;99.90
780;DHT22;373;49.342;8.146;2022-11-25T12:49:16;11.50;99.90
780;DHT22;373;49.342;8.146;2022-11-25T12:52:19;11.70;99.90
780;DHT22;373;49.342;8.146;2022-11-25T12:55:09;12.20;99.90
780;DHT22;373;49.342;8.146;2022-11-25T12:58:01;12.30;99.90
780;DHT22;373;49.342;8.146;2022-11-25T13:00:45;12.30;99.90
780;DHT22;373;49.342;8.146;2022-11-25T13:03:39;12.20;99.90
780;DHT22;373;49.342;8.146;2022-11-25T13:09:37;12.40;99.90
780;DHT22;373;49.342;8.146;2022-11-25T13:12:18;12.60;99.90
780;DHT22;373;49.342;8.146;2022-11-25T13:15:11;12.80;99.90
780;DHT22;373;49.342;8.146;2022-11-25T13:17:44;13.20;99.90
780;DHT22;373;49.342;8.146;2022-11-25T13:20:31;13.40;99.90
780;DHT22;373;49.342;8.146;2022-11-25T13:23:01;13.40;99.90
780;DHT22;373;49.342;8.146;2022-11-25T13:25:34;13.20;99.90
780;DHT22;373;49.342;8.146;2022-11-25T13:28:03;13.40;99.90
780;DHT22;373;49.342;8.146;2022-11-25T13:30:36;13.40;98.80
780;DHT22;373;49.342;8.146;2022-11-25T13:36:17;13.30;98.00
780;DHT22;373;49.342;8.146;2022-11-25T13:38:57;13.50;97.40
780;DHT22;373;49.342;8.146;2022-11-25T13:41:43;13.50;98.00
780;DHT22;373;49.342;8.146;2022-11-25T13:44:19;13.40;97.50
780;DHT22;373;49.342;8.146;2022-11-25T13:46:48;13.30;96.90
780;DHT22;373;49.342;8.146;2022-11-25T13:49:26;13.20;97.90
780;DHT22;373;49.342;8.146;2022-11-25T13:51:58;13.40;97.50
780;DHT22;373;49.342;8.146;2022-11-25T13:54:32;13.50;97.20
780;DHT22;373;49.342;8.146;2022-11-25T13:57:26;13.50;95.80
780;DHT22;373;49.342;8.146;2022-11-25T13:59:56;13.20;96.60
780;DHT22;373;49.342;8.146;2022-11-25T14:02:36;13.30;97.10
780;DHT22;373;49.342;8.146;2022-11-25T14:05:35;13.20;96.40
780;DHT22;373;49.342;8.146;2022-11-25T14:08:20;13.00;96.00
780;DHT22;373;49.342;8.146;2022-11-25T14:10:56;13.00;95.40
780;DHT22;373;49.342;8.146;2022-11-25T14:13:42;12.80;95.90
780;DHT22;373;49.342;8.146;2022-11-25T14:16:24;12.70;95.30
780;DHT22;373;49.342;8.146;2022-11-25T14:19:22;12.90;94.90
780;DHT22;373;49.342;8.146;2022-11-25T14:22:02;12.70;95.90
780;DHT22;373;49.342;8.146;2022-11-25T14:24:39;12.80;96.00
780;DHT22;373;49.342;8.146;2022-11-25T14:27:13;12.90;95.90
780;DHT22;373;49.342;8.146;2022-11-25T14:29:44;12.40;96.30
780;DHT22;373;49.342;8.146;2022-11-25T14:32:14;12.40;96.50
780;DHT22;373;49.342;8.146;2022-11-25T14:34:47;12.20;96.50
780;DHT22;373;49.342;8.146;2022-11-25T14:37:19;12.20;97.20
780;DHT22;373;49.342;8.146;2022-11-25T14:39:54;12.40;97.20
780;DHT22;373;49.342;8.146;2022-11-25T14:42:24;12.80;96.60
780;DHT22;373;49.342;8.146;2022-11-25T14:44:54;12.90;95.60
780;DHT22;373;49.342;8.146;2022-11-25T14:47:24;12.80;95.60
780;DHT22;373;49.342;8.146;2022-11-25T14:49:52;12.60;96.20
780;DHT22;373;49.342;8.146;2022-11-25T14:52:22;12.80;96.10
780;DHT22;373;49.342;8.146;2022-11-25T14:54:53;12.60;95.80
780;DHT22;373;49.342;8.146;2022-11-25T14:57:23;12.40;95.90
780;DHT22;373;49.342;8.146;2022-11-25T14:59:53;12.50;96.40
780;DHT22;373;49.342;8.146;2022-11-25T15:02:27;12.30;96.60
780;DHT22;373;49.342;8.146;2022-11-25T15:05:01;12.20;97.20
780;DHT22;373;49.342;8.146;2022-11-25T15:07:29;12.00;98.10
780;DHT22;373;49.342;8.146;2022-11-25T15:09:57;11.70;98.70
780;DHT22;373;49.342;8.146;2022-11-25T15:12:29;11.60;99.60
780;DHT22;373;49.342;8.146;2022-11-25T15:14:58;11.90;98.60
780;DHT22;373;49.342;8.146;2022-11-25T15:17:27;12.00;98.90
780;DHT22;373;49.342;8.146;2022-11-25T15:19:57;12.30;98.10
780;DHT22;373;49.342;8.146;2022-11-25T15:22:24;12.40;96.90
780;DHT22;373;49.342;8.146;2022-11-25T15:24:53;12.00;97.30
780;DHT22;373;49.342;8.146;2022-11-25T15:27:23;11.90;97.80
780;DHT22;373;49.342;8.146;2022-11-25T15:29:52;11.90;97.80
780;DHT22;373;49.342;8.146;2022-11-25T15:32:23;11.70;97.80
780;DHT22;373;49.342;8.146;2022-11-25T15:34:51;11.60;98.10
780;DHT22;373;49.342;8.146;2022-11-25T15:37:19;11.40;98.90
780;DHT22;373;49.342;8.146;2022-11-25T15:39:47;11.20;99.90
780;DHT22;373;49.342;8.146;2022-11-25T15:42:17;11.10;99.90
780;DHT22;373;49.342;8.146;2022-11-25T15:44:49;11.20;99.90
780;DHT22;373;49.342;8.146;2022-11-25T15:47:21;11.30;99.90
780;DHT22;373;49.342;8.146;2022-11-25T15:49:53;11.50;99.90
780;DHT22;373;49.342;8.146;2022-11-25T15:52:23;11.50;99.90
780;DHT22;373;49.342;8.146;2022-11-25T15:55:01;11.60;99.60
780;DHT22;373;49.342;8.146;2022-11-25T15:57:32;11.40;99.90
780;DHT22;373;49.342;8.146;2022-11-25T16:00:14;11.60;99.90
780;DHT22;373;49.342;8.146;2022-11-25T16:02:54;11.70;99.60
780;DHT22;373;49.342;8.146;2022-11-25T16:05:36;11.30;99.90
780;DHT22;373;49.342;8.146;2022-11-25T16:08:32;11.50;99.90
780;DHT22;373;49.342;8.146;2022-11-25T16:11:12;11.30;99.90
780;DHT22;373;49.342;8.146;2022-11-25T16:13:41;11.00;99.90
780;DHT22;373;49.342;8.146;2022-11-25T16:16:22;11.20;99.90
780;DHT22;373;49.342;8.146;2022-11-25T16:19:16;11.20;99.90
780;DHT22;373;49.342;8.146;2022-11-25T16:21:49;11.10;99.90
780;DHT22;373;49.342;8.146;2022-11-25T16:24:39;10.90;99.90
780;DHT22;373;49.342;8.146;2022-11-25T16:27:15;10.90;99.90
780;DHT22;373;49.342;8.146;2022-11-25T16:29:51;10.60;99.90
780;DHT22;373;49.342;8.146;2022-11-25T16:32:22;10.10;99.90
780;DHT22;373;49.342;8.146;2022-11-25T16:34:50;10.10;99.90
780;DHT22;373;49.342;8.146;2022-11-25T16:37:17;10.10;99.90
780;DHT22;373;49.342;8.146;2022-11-25T16:39:44;10.20;99.90
780;DHT22;373;49.342;8.146;2022-11-25T16:42:19;10.40;99.90
780;DHT22;373;49.342;8.146;2022-11-25T16:44:48;10.40;99.90
780;DHT22;373;49.342;8.146;2022-11-25T16:47:16;10.60;99.90
780;DHT22;373;49.342;8.146;2022-11-25T16:49:45;10.70;99.90
780;DHT22;373;49.342;8.146;2022-11-25T16:52:12;10.80;99.90
780;DHT22;373;49.342;8.146;2022-11-25T16:54:39;10.80;99.90
780;DHT22;373;49.342;8.146;2022-11-25T16:57:12;10.80;99.90
780;DHT22;373;49.342;8.146;2022-11-25T16:59:42;10.80;99.90
780;DHT22;373;49.342;8.146;2022-11-25T17:02:14;10.60;99.90
780;DHT22;373;49.342;8.146;2022-11-25T17:04:42;10.60;99.90
780;DHT22;373;49.342;8.146;2022-11-25T17:07:11;10.50;99.90
780;DHT22;373;49.342;8.146;2022-11-25T17:09:39;10.00;99.90
780;DHT22;373;49.342;8.146;2022-11-25T17:12:12;9.90;99.90
780;DHT22;373;49.342;8.146;2022-11-25T17:14:41;9.80;99.90
780;DHT22;373;49.342;8.146;2022-11-25T17:17:09;10.00;99.90
780;DHT22;373;49.342;8.146;2022-11-25T17:19:38;9.90;99.90
780;DHT22;373;49.342;8.146;2022-11-25T17:22:15;9.90;99.90
780;DHT22;373;49.342;8.146;2022-11-25T17:24:42;10.00;99.90